sensor_id;sensor_type;location;lat;lon;timestamp;pressure;altitude;pressure_sealevel;temperature;humidity
79067;BME280;68470;50.224;14.348;2023-07-13T00:00:24;99019.78;;;19.89;80.76
79067;BME280;68470;50.224;14.348;2023-07-13T00:03:10;99023.25;;;19.86;80.11
79067;BME280;68470;50.224;14.348;2023-07-13T00:05:39;99029.31;;;19.88;79.83
79067;BME280;68470;50.224;14.348;2023-07-13T00:08:05;99024.22;;;19.81;80.84
79067;BME280;68470;50.224;14.348;2023-07-13T00:10:31;99041.75;;;19.99;79.58
79067;BME280;68470;50.224;14.348;2023-07-13T00:12:57;99040.63;;;20.21;78.45
79067;BME280;68470;50.224;14.348;2023-07-13T00:15:25;99034.72;;;20.23;78.43
79067;BME280;68470;50.224;14.348;2023-07-13T00:17:52;99050.78;;;20.26;78.80
79067;BME280;68470;50.224;14.348;2023-07-13T00:20:18;99044.63;;;20.11;79.15
79067;BME280;68470;50.224;14.348;2023-07-13T00:22:48;99042.41;;;19.96;79.74
79067;BME280;68470;50.224;14.348;2023-07-13T00:25:14;99034.91;;;19.88;80.66
79067;BME280;68470;50.224;14.348;2023-07-13T00:27:42;99040.72;;;20.04;79.57
79067;BME280;68470;50.224;14.348;2023-07-13T00:30:08;99029.22;;;20.05;79.25
79067;BME280;68470;50.224;14.348;2023-07-13T00:32:34;99032.00;;;20.05;79.51
79067;BME280;68470;50.224;14.348;2023-07-13T00:35:01;99025.50;;;19.93;80.05
79067;BME280;68470;50.224;14.348;2023-07-13T00:37:27;99010.25;;;19.90;79.10
79067;BME280;68470;50.224;14.348;2023-07-13T00:39:52;99017.72;;;20.07;79.10
79067;BME280;68470;50.224;14.348;2023-07-13T00:42:19;99010.50;;;19.97;79.15
79067;BME280;68470;50.224;14.348;2023-07-13T00:45:05;98996.66;;;20.09;78.45
79067;BME280;68470;50.224;14.348;2023-07-13T00:47:33;98991.84;;;19.89;80.04
79067;BME280;68470;50.224;14.348;2023-07-13T00:49:59;98993.69;;;19.85;79.35
79067;BME280;68470;50.224;14.348;2023-07-13T00:52:26;98980.28;;;19.99;77.93
79067;BME280;68470;50.224;14.348;2023-07-13T00:54:54;98986.97;;;20.07;77.75
79067;BME280;68470;50.224;14.348;2023-07-13T00:57:20;98984.53;;;20.05;77.98
79067;BME280;68470;50.224;14.348;2023-07-13T00:59:50;98978.84;;;19.93;78.65
79067;BME280;68470;50.224;14.348;2023-07-13T01:02:17;98988.59;;;19.78;79.82
79067;BME280;68470;50.224;14.348;2023-07-13T01:04:43;98991.88;;;19.80;79.44
79067;BME280;68470;50.224;14.348;2023-07-13T01:07:10;98983.41;;;19.68;79.77
79067;BME280;68470;50.224;14.348;2023-07-13T01:09:37;98988.19;;;19.59;80.13
79067;BME280;68470;50.224;14.348;2023-07-13T01:12:03;98996.91;;;19.58;79.97
79067;BME280;68470;50.224;14.348;2023-07-13T01:14:29;98996.84;;;19.75;79.03
79067;BME280;68470;50.224;14.348;2023-07-13T01:16:55;98987.97;;;19.73;78.34
79067;BME280;68470;50.224;14.348;2023-07-13T01:19:33;98977.28;;;19.75;79.56
79067;BME280;68470;50.224;14.348;2023-07-13T01:22:03;98973.00;;;19.77;77.38
79067;BME280;68470;50.224;14.348;2023-07-13T01:24:28;98971.22;;;19.73;79.78
79067;BME280;68470;50.224;14.348;2023-07-13T01:26:55;98969.66;;;19.55;80.03
79067;BME280;68470;50.224;14.348;2023-07-13T01:29:21;98970.66;;;19.50;80.20
79067;BME280;68470;50.224;14.348;2023-07-13T01:31:47;98966.38;;;19.52;80.05
79067;BME280;68470;50.224;14.348;2023-07-13T01:34:12;98967.63;;;19.72;79.68
79067;BME280;68470;50.224;14.348;2023-07-13T01:36:38;98975.53;;;19.62;79.29
79067;BME280;68470;50.224;14.348;2023-07-13T01:39:04;98964.91;;;19.55;79.00
79067;BME280;68470;50.224;14.348;2023-07-13T01:41:30;98978.66;;;19.69;79.20
79067;BME280;68470;50.224;14.348;2023-07-13T01:43:55;98963.09;;;19.50;79.60
79067;BME280;68470;50.224;14.348;2023-07-13T01:46:21;98972.16;;;19.39;79.50
79067;BME280;68470;50.224;14.348;2023-07-13T01:48:47;98968.50;;;19.56;78.85
79067;BME280;68470;50.224;14.348;2023-07-13T01:51:13;98960.06;;;19.73;78.50
79067;BME280;68470;50.224;14.348;2023-07-13T01:53:39;98974.91;;;19.56;78.90
79067;BME280;68470;50.224;14.348;2023-07-13T01:56:05;98982.81;;;19.54;79.36
79067;BME280;68470;50.224;14.348;2023-07-13T01:58:30;98984.09;;;19.65;79.29
79067;BME280;68470;50.224;14.348;2023-07-13T02:00:57;98987.97;;;19.73;78.84
79067;BME280;68470;50.224;14.348;2023-07-13T02:03:22;98993.78;;;19.59;79.45
79067;BME280;68470;50.224;14.348;2023-07-13T02:05:48;98992.28;;;19.62;79.03
79067;BME280;68470;50.224;14.348;2023-07-13T02:08:13;99000.84;;;19.57;79.28
79067;BME280;68470;50.224;14.348;2023-07-13T02:10:40;99011.84;;;19.53;79.24
79067;BME280;68470;50.224;14.348;2023-07-13T02:13:06;98995.41;;;19.69;77.96
79067;BME280;68470;50.224;14.348;2023-07-13T02:15:32;98995.91;;;19.62;77.66
79067;BME280;68470;50.224;14.348;2023-07-13T02:17:58;98992.13;;;19.67;77.96
79067;BME280;68470;50.224;14.348;2023-07-13T02:20:25;99000.03;;;19.56;78.21
79067;BME280;68470;50.224;14.348;2023-07-13T02:22:52;98992.31;;;19.44;78.25
79067;BME280;68470;50.224;14.348;2023-07-13T02:25:17;98993.13;;;19.53;77.55
79067;BME280;68470;50.224;14.348;2023-07-13T02:27:43;98985.91;;;19.44;77.97
79067;BME280;68470;50.224;14.348;2023-07-13T02:30:11;98999.91;;;19.35;77.57
79067;BME280;68470;50.224;14.348;2023-07-13T02:32:36;98997.00;;;19.23;76.69
79067;BME280;68470;50.224;14.348;2023-07-13T02:35:02;98999.78;;;19.23;74.68
79067;BME280;68470;50.224;14.348;2023-07-13T02:37:29;99004.00;;;19.38;72.33
79067;BME280;68470;50.224;14.348;2023-07-13T02:39:57;99006.47;;;19.39;71.47
79067;BME280;68470;50.224;14.348;2023-07-13T02:42:23;99018.09;;;19.41;70.49
79067;BME280;68470;50.224;14.348;2023-07-13T02:44:49;99024.88;;;19.32;69.09
79067;BME280;68470;50.224;14.348;2023-07-13T02:47:16;99031.41;;;19.44;67.97
79067;BME280;68470;50.224;14.348;2023-07-13T02:49:42;99038.47;;;19.42;67.26
79067;BME280;68470;50.224;14.348;2023-07-13T02:52:07;99047.81;;;19.55;66.17
79067;BME280;68470;50.224;14.348;2023-07-13T02:54:33;99046.69;;;19.56;65.72
79067;BME280;68470;50.224;14.348;2023-07-13T02:56:59;99043.38;;;19.53;65.56
79067;BME280;68470;50.224;14.348;2023-07-13T02:59:25;99032.84;;;19.68;64.08
79067;BME280;68470;50.224;14.348;2023-07-13T03:01:52;99039.41;;;19.72;64.40
79067;BME280;68470;50.224;14.348;2023-07-13T03:04:18;99028.25;;;19.63;64.44
79067;BME280;68470;50.224;14.348;2023-07-13T03:06:45;99032.53;;;19.61;64.75
79067;BME280;68470;50.224;14.348;2023-07-13T03:09:10;99017.28;;;19.58;64.96
79067;BME280;68470;50.224;14.348;2023-07-13T03:11:38;99018.09;;;19.59;65.31
79067;BME280;68470;50.224;14.348;2023-07-13T03:14:04;99026.31;;;19.55;65.83
79067;BME280;68470;50.224;14.348;2023-07-13T03:16:29;99022.19;;;19.52;64.97
79067;BME280;68470;50.224;14.348;2023-07-13T03:18:55;99042.88;;;19.51;64.65
79067;BME280;68470;50.224;14.348;2023-07-13T03:21:21;99075.56;;;19.51;64.60
79067;BME280;68470;50.224;14.348;2023-07-13T03:23:47;99106.44;;;19.55;65.43
79067;BME280;68470;50.224;14.348;2023-07-13T03:26:16;99116.13;;;19.31;68.43
79067;BME280;68470;50.224;14.348;2023-07-13T03:28:43;99119.44;;;19.07;68.94
79067;BME280;68470;50.224;14.348;2023-07-13T03:31:17;99123.34;;;18.98;69.09
79067;BME280;68470;50.224;14.348;2023-07-13T03:33:44;99129.59;;;18.94;69.05
79067;BME280;68470;50.224;14.348;2023-07-13T03:36:14;99115.16;;;18.92;68.74
79067;BME280;68470;50.224;14.348;2023-07-13T03:38:41;99092.84;;;18.92;66.69
79067;BME280;68470;50.224;14.348;2023-07-13T03:41:07;99076.59;;;18.94;66.58
79067;BME280;68470;50.224;14.348;2023-07-13T03:43:34;99101.69;;;18.94;66.75
79067;BME280;68470;50.224;14.348;2023-07-13T03:45:59;99099.75;;;18.86;67.57
79067;BME280;68470;50.224;14.348;2023-07-13T03:48:25;99124.00;;;18.77;68.77
79067;BME280;68470;50.224;14.348;2023-07-13T03:50:51;99120.00;;;18.61;69.92
79067;BME280;68470;50.224;14.348;2023-07-13T03:53:18;99125.22;;;18.54;70.00
79067;BME280;68470;50.224;14.348;2023-07-13T03:55:44;99119.16;;;18.52;69.58
79067;BME280;68470;50.224;14.348;2023-07-13T03:58:28;99117.84;;;18.49;69.94
79067;BME280;68470;50.224;14.348;2023-07-13T04:00:55;99131.91;;;18.36;70.70
79067;BME280;68470;50.224;14.348;2023-07-13T04:03:21;99126.78;;;18.20;71.11
79067;BME280;68470;50.224;14.348;2023-07-13T04:05:47;99125.78;;;18.16;70.68
79067;BME280;68470;50.224;14.348;2023-07-13T04:08:13;99139.38;;;18.18;71.46
79067;BME280;68470;50.224;14.348;2023-07-13T04:10:38;99131.94;;;18.04;72.21
79067;BME280;68470;50.224;14.348;2023-07-13T04:13:05;99138.59;;;17.95;72.12
79067;BME280;68470;50.224;14.348;2023-07-13T04:15:31;99148.06;;;17.85;72.93
79067;BME280;68470;50.224;14.348;2023-07-13T04:17:58;99151.13;;;17.75;73.58
79067;BME280;68470;50.224;14.348;2023-07-13T04:20:25;99152.63;;;17.59;74.22
79067;BME280;68470;50.224;14.348;2023-07-13T04:22:51;99155.28;;;17.64;74.59
79067;BME280;68470;50.224;14.348;2023-07-13T04:25:20;99164.97;;;17.66;74.84
79067;BME280;68470;50.224;14.348;2023-07-13T04:27:46;99166.09;;;17.65;74.44
79067;BME280;68470;50.224;14.348;2023-07-13T04:30:11;99161.94;;;17.77;74.07
79067;BME280;68470;50.224;14.348;2023-07-13T04:32:37;99166.91;;;17.66;74.66
79067;BME280;68470;50.224;14.348;2023-07-13T04:35:03;99169.53;;;17.85;74.15
79067;BME280;68470;50.224;14.348;2023-07-13T04:37:30;99179.19;;;17.87;73.99
79067;BME280;68470;50.224;14.348;2023-07-13T04:39:55;99178.72;;;17.94;73.94
79067;BME280;68470;50.224;14.348;2023-07-13T04:42:21;99159.31;;;18.02;73.52
79067;BME280;68470;50.224;14.348;2023-07-13T04:44:51;99175.00;;;17.98;73.56
79067;BME280;68470;50.224;14.348;2023-07-13T04:47:20;99180.25;;;18.00;73.14
79067;BME280;68470;50.224;14.348;2023-07-13T04:49:46;99178.47;;;18.04;73.33
79067;BME280;68470;50.224;14.348;2023-07-13T04:52:12;99176.91;;;18.20;72.52
79067;BME280;68470;50.224;14.348;2023-07-13T04:54:37;99177.81;;;18.38;71.79
79067;BME280;68470;50.224;14.348;2023-07-13T04:57:04;99178.28;;;18.31;72.37
79067;BME280;68470;50.224;14.348;2023-07-13T04:59:35;99173.22;;;18.33;72.60
79067;BME280;68470;50.224;14.348;2023-07-13T05:02:00;99177.97;;;18.33;73.06
79067;BME280;68470;50.224;14.348;2023-07-13T05:04:27;99177.97;;;18.33;72.49
79067;BME280;68470;50.224;14.348;2023-07-13T05:06:53;99168.25;;;18.30;72.33
79067;BME280;68470;50.224;14.348;2023-07-13T05:09:18;99182.91;;;18.45;72.06
79067;BME280;68470;50.224;14.348;2023-07-13T05:11:44;99181.75;;;18.46;72.38
79067;BME280;68470;50.224;14.348;2023-07-13T05:14:10;99182.44;;;18.51;72.03
79067;BME280;68470;50.224;14.348;2023-07-13T05:16:36;99195.47;;;18.65;71.84
79067;BME280;68470;50.224;14.348;2023-07-13T05:19:02;99188.34;;;19.07;69.61
79067;BME280;68470;50.224;14.348;2023-07-13T05:21:28;99200.47;;;19.11;69.52
79067;BME280;68470;50.224;14.348;2023-07-13T05:23:54;99193.75;;;19.12;69.39
79067;BME280;68470;50.224;14.348;2023-07-13T05:26:20;99203.78;;;19.47;68.29
79067;BME280;68470;50.224;14.348;2023-07-13T05:28:46;99205.06;;;19.93;66.96
79067;BME280;68470;50.224;14.348;2023-07-13T05:31:13;99204.84;;;20.24;66.21
79067;BME280;68470;50.224;14.348;2023-07-13T05:33:40;99205.19;;;20.69;64.41
79067;BME280;68470;50.224;14.348;2023-07-13T05:36:06;99205.94;;;20.79;64.17
79067;BME280;68470;50.224;14.348;2023-07-13T05:38:32;99206.00;;;20.70;64.13
79067;BME280;68470;50.224;14.348;2023-07-13T05:40:59;99211.75;;;20.65;63.53
79067;BME280;68470;50.224;14.348;2023-07-13T05:43:24;99204.84;;;20.24;64.13
79067;BME280;68470;50.224;14.348;2023-07-13T05:45:55;99214.63;;;20.86;62.50
79067;BME280;68470;50.224;14.348;2023-07-13T05:48:21;99205.59;;;20.80;62.94
79067;BME280;68470;50.224;14.348;2023-07-13T05:50:47;99210.38;;;20.80;63.44
79067;BME280;68470;50.224;14.348;2023-07-13T05:53:13;99208.28;;;21.48;61.54
79067;BME280;68470;50.224;14.348;2023-07-13T05:55:43;99215.72;;;21.65;60.67
79067;BME280;68470;50.224;14.348;2023-07-13T05:58:11;99216.88;;;21.63;60.97
79067;BME280;68470;50.224;14.348;2023-07-13T06:00:37;99206.28;;;21.90;60.28
79067;BME280;68470;50.224;14.348;2023-07-13T06:03:03;99211.88;;;22.23;59.17
79067;BME280;68470;50.224;14.348;2023-07-13T06:05:29;99220.91;;;22.41;58.31
79067;BME280;68470;50.224;14.348;2023-07-13T06:07:55;99228.88;;;22.63;58.51
79067;BME280;68470;50.224;14.348;2023-07-13T06:10:22;99215.94;;;22.95;57.48
79067;BME280;68470;50.224;14.348;2023-07-13T06:12:48;99222.34;;;23.20;56.57
79067;BME280;68470;50.224;14.348;2023-07-13T06:15:14;99230.44;;;23.22;56.16
79067;BME280;68470;50.224;14.348;2023-07-13T06:17:39;99228.59;;;21.99;60.09
79067;BME280;68470;50.224;14.348;2023-07-13T06:20:06;99228.66;;;21.57;61.70
79067;BME280;68470;50.224;14.348;2023-07-13T06:22:32;99224.00;;;21.40;62.21
79067;BME280;68470;50.224;14.348;2023-07-13T06:24:58;99235.03;;;21.78;61.64
79067;BME280;68470;50.224;14.348;2023-07-13T06:27:24;99234.75;;;22.95;58.31
79067;BME280;68470;50.224;14.348;2023-07-13T06:29:50;99232.66;;;23.04;57.82
79067;BME280;68470;50.224;14.348;2023-07-13T06:32:16;99223.66;;;22.86;57.00
79067;BME280;68470;50.224;14.348;2023-07-13T06:34:42;99245.63;;;22.84;57.77
79067;BME280;68470;50.224;14.348;2023-07-13T06:37:09;99233.75;;;23.52;55.36
79067;BME280;68470;50.224;14.348;2023-07-13T06:39:35;99238.94;;;23.90;54.46
79067;BME280;68470;50.224;14.348;2023-07-13T06:42:01;99240.28;;;23.96;54.89
79067;BME280;68470;50.224;14.348;2023-07-13T06:44:27;99235.53;;;23.84;54.72
79067;BME280;68470;50.224;14.348;2023-07-13T06:46:57;99230.53;;;23.78;54.78
79067;BME280;68470;50.224;14.348;2023-07-13T06:49:23;99234.19;;;23.66;56.13
79067;BME280;68470;50.224;14.348;2023-07-13T06:51:49;99234.69;;;23.56;55.70
79067;BME280;68470;50.224;14.348;2023-07-13T06:54:15;99236.75;;;23.19;57.28
79067;BME280;68470;50.224;14.348;2023-07-13T06:56:41;99241.97;;;23.85;55.55
79067;BME280;68470;50.224;14.348;2023-07-13T06:59:07;99254.88;;;24.73;53.22
79067;BME280;68470;50.224;14.348;2023-07-13T07:01:33;99247.47;;;25.67;50.92
79067;BME280;68470;50.224;14.348;2023-07-13T07:04:00;99243.66;;;25.40;50.40
79067;BME280;68470;50.224;14.348;2023-07-13T07:06:26;99248.69;;;25.50;50.15
79067;BME280;68470;50.224;14.348;2023-07-13T07:08:52;99250.25;;;25.83;49.75
79067;BME280;68470;50.224;14.348;2023-07-13T07:11:20;99256.63;;;25.09;52.17
79067;BME280;68470;50.224;14.348;2023-07-13T07:13:48;99243.81;;;25.66;49.07
79067;BME280;68470;50.224;14.348;2023-07-13T07:16:13;99249.53;;;24.52;52.38
79067;BME280;68470;50.224;14.348;2023-07-13T07:18:39;99267.50;;;24.95;51.81
79067;BME280;68470;50.224;14.348;2023-07-13T07:21:05;99264.16;;;25.21;50.92
79067;BME280;68470;50.224;14.348;2023-07-13T07:23:31;99267.56;;;24.51;52.52
79067;BME280;68470;50.224;14.348;2023-07-13T07:25:57;99265.69;;;24.55;53.02
79067;BME280;68470;50.224;14.348;2023-07-13T07:28:23;99262.63;;;25.08;50.49
79067;BME280;68470;50.224;14.348;2023-07-13T07:30:52;99272.38;;;24.82;50.82
79067;BME280;68470;50.224;14.348;2023-07-13T07:33:19;99263.13;;;24.98;50.44
79067;BME280;68470;50.224;14.348;2023-07-13T07:35:44;99267.84;;;25.95;48.09
79067;BME280;68470;50.224;14.348;2023-07-13T07:38:10;99271.41;;;26.54;45.70
79067;BME280;68470;50.224;14.348;2023-07-13T07:40:40;99271.28;;;27.38;43.82
79067;BME280;68470;50.224;14.348;2023-07-13T07:43:07;99259.34;;;27.78;42.67
79067;BME280;68470;50.224;14.348;2023-07-13T07:45:34;99265.34;;;27.47;43.17
79067;BME280;68470;50.224;14.348;2023-07-13T07:48:00;99262.75;;;27.91;42.71
79067;BME280;68470;50.224;14.348;2023-07-13T07:50:27;99261.22;;;26.91;44.84
79067;BME280;68470;50.224;14.348;2023-07-13T07:52:53;99276.66;;;25.74;47.89
79067;BME280;68470;50.224;14.348;2023-07-13T07:55:21;99281.03;;;25.72;47.20
79067;BME280;68470;50.224;14.348;2023-07-13T07:57:48;99285.69;;;25.48;46.92
79067;BME280;68470;50.224;14.348;2023-07-13T08:00:14;99278.84;;;25.14;48.10
79067;BME280;68470;50.224;14.348;2023-07-13T08:02:41;99276.94;;;26.47;44.17
79067;BME280;68470;50.224;14.348;2023-07-13T08:05:08;99275.41;;;27.71;41.91
79067;BME280;68470;50.224;14.348;2023-07-13T08:07:35;99275.03;;;27.46;40.72
79067;BME280;68470;50.224;14.348;2023-07-13T08:10:01;99283.72;;;27.07;41.32
79067;BME280;68470;50.224;14.348;2023-07-13T08:12:27;99284.81;;;27.25;37.72
79067;BME280;68470;50.224;14.348;2023-07-13T08:14:53;99277.34;;;26.91;39.62
79067;BME280;68470;50.224;14.348;2023-07-13T08:17:26;99284.47;;;26.85;40.09
79067;BME280;68470;50.224;14.348;2023-07-13T08:19:52;99285.91;;;26.33;41.83
79067;BME280;68470;50.224;14.348;2023-07-13T08:22:18;99282.53;;;26.66;39.79
79067;BME280;68470;50.224;14.348;2023-07-13T08:24:43;99281.84;;;26.95;38.28
79067;BME280;68470;50.224;14.348;2023-07-13T08:27:12;99278.72;;;26.78;39.16
79067;BME280;68470;50.224;14.348;2023-07-13T08:29:39;99285.66;;;28.46;36.42
79067;BME280;68470;50.224;14.348;2023-07-13T08:32:06;99287.72;;;29.38;34.29
79067;BME280;68470;50.224;14.348;2023-07-13T08:34:34;99279.94;;;29.79;32.87
79067;BME280;68470;50.224;14.348;2023-07-13T08:37:01;99283.09;;;29.67;33.24
79067;BME280;68470;50.224;14.348;2023-07-13T08:39:30;99279.59;;;29.91;32.66
79067;BME280;68470;50.224;14.348;2023-07-13T08:42:01;99277.09;;;30.91;31.88
79067;BME280;68470;50.224;14.348;2023-07-13T08:44:38;99285.81;;;30.18;31.51
79067;BME280;68470;50.224;14.348;2023-07-13T08:47:08;99285.06;;;30.39;31.29
79067;BME280;68470;50.224;14.348;2023-07-13T08:49:35;99280.00;;;29.93;31.13
79067;BME280;68470;50.224;14.348;2023-07-13T08:52:10;99277.97;;;29.90;31.56
79067;BME280;68470;50.224;14.348;2023-07-13T08:54:41;99283.16;;;28.74;33.52
79067;BME280;68470;50.224;14.348;2023-07-13T08:57:17;99273.88;;;31.31;29.33
79067;BME280;68470;50.224;14.348;2023-07-13T08:59:44;99277.66;;;28.92;31.71
79067;BME280;68470;50.224;14.348;2023-07-13T09:02:39;99263.84;;;30.04;30.68
79067;BME280;68470;50.224;14.348;2023-07-13T09:05:33;99275.97;;;29.98;30.88
79067;BME280;68470;50.224;14.348;2023-07-13T09:08:33;99288.69;;;29.56;32.33
79067;BME280;68470;50.224;14.348;2023-07-13T09:11:28;99282.53;;;30.09;30.93
79067;BME280;68470;50.224;14.348;2023-07-13T09:16:39;99280.94;;;27.11;35.11
79067;BME280;68470;50.224;14.348;2023-07-13T09:19:07;99279.31;;;27.10;36.07
79067;BME280;68470;50.224;14.348;2023-07-13T09:21:41;99283.88;;;26.95;36.21
79067;BME280;68470;50.224;14.348;2023-07-13T09:26:58;99303.19;;;27.39;34.67
79067;BME280;68470;50.224;14.348;2023-07-13T09:29:30;99302.63;;;28.83;32.26
79067;BME280;68470;50.224;14.348;2023-07-13T09:32:02;99311.22;;;29.93;28.01
79067;BME280;68470;50.224;14.348;2023-07-13T09:34:29;99312.16;;;30.11;27.84
79067;BME280;68470;50.224;14.348;2023-07-13T09:36:56;99308.78;;;29.95;28.95
79067;BME280;68470;50.224;14.348;2023-07-13T09:39:28;99308.09;;;29.02;31.55
79067;BME280;68470;50.224;14.348;2023-07-13T09:42:03;99321.53;;;30.26;29.66
79067;BME280;68470;50.224;14.348;2023-07-13T09:44:38;99315.66;;;32.86;25.70
79067;BME280;68470;50.224;14.348;2023-07-13T09:47:25;99318.41;;;32.16;26.34
79067;BME280;68470;50.224;14.348;2023-07-13T09:50:03;99316.09;;;31.36;27.73
79067;BME280;68470;50.224;14.348;2023-07-13T09:52:48;99325.44;;;31.48;26.75
79067;BME280;68470;50.224;14.348;2023-07-13T09:55:37;99312.06;;;31.27;27.00
79067;BME280;68470;50.224;14.348;2023-07-13T09:58:09;99313.84;;;30.27;27.85
79067;BME280;68470;50.224;14.348;2023-07-13T10:00:36;99324.50;;;29.23;29.54
79067;BME280;68470;50.224;14.348;2023-07-13T10:03:19;99333.34;;;29.18;29.73
79067;BME280;68470;50.224;14.348;2023-07-13T10:05:47;99329.88;;;29.94;28.79
79067;BME280;68470;50.224;14.348;2023-07-13T10:08:20;99335.53;;;30.84;26.26
79067;BME280;68470;50.224;14.348;2023-07-13T10:10:52;99336.97;;;30.36;26.23
79067;BME280;68470;50.224;14.348;2023-07-13T10:13:34;99333.13;;;30.94;25.70
79067;BME280;68470;50.224;14.348;2023-07-13T10:16:07;99327.03;;;30.99;26.13
79067;BME280;68470;50.224;14.348;2023-07-13T10:18:55;99314.78;;;30.70;26.39
79067;BME280;68470;50.224;14.348;2023-07-13T10:21:26;99317.97;;;30.47;26.61
79067;BME280;68470;50.224;14.348;2023-07-13T10:24:04;99314.31;;;30.53;27.62
79067;BME280;68470;50.224;14.348;2023-07-13T10:26:33;99318.44;;;30.63;27.41
79067;BME280;68470;50.224;14.348;2023-07-13T10:29:05;99309.59;;;31.50;25.09
79067;BME280;68470;50.224;14.348;2023-07-13T10:31:38;99310.94;;;30.16;27.05
79067;BME280;68470;50.224;14.348;2023-07-13T10:34:04;99311.81;;;32.41;24.81
79067;BME280;68470;50.224;14.348;2023-07-13T10:36:42;99306.47;;;32.50;24.04
79067;BME280;68470;50.224;14.348;2023-07-13T10:39:17;99307.41;;;30.44;26.78
79067;BME280;68470;50.224;14.348;2023-07-13T10:41:46;99309.59;;;31.75;25.55
79067;BME280;68470;50.224;14.348;2023-07-13T10:44:21;99309.56;;;31.68;24.90
79067;BME280;68470;50.224;14.348;2023-07-13T10:46:53;99291.66;;;32.80;24.06
79067;BME280;68470;50.224;14.348;2023-07-13T10:49:19;99294.97;;;34.09;22.50
79067;BME280;68470;50.224;14.348;2023-07-13T10:51:46;99294.50;;;34.48;21.14
79067;BME280;68470;50.224;14.348;2023-07-13T10:54:20;99294.41;;;35.36;20.52
79067;BME280;68470;50.224;14.348;2023-07-13T10:59:32;99291.66;;;33.32;21.62
79067;BME280;68470;50.224;14.348;2023-07-13T11:02:10;99292.28;;;34.29;21.66
79067;BME280;68470;50.224;14.348;2023-07-13T11:07:30;99292.13;;;35.24;20.49
79067;BME280;68470;50.224;14.348;2023-07-13T11:10:04;99268.31;;;34.80;20.64
79067;BME280;68470;50.224;14.348;2023-07-13T11:12:52;99276.41;;;33.94;22.21
79067;BME280;68470;50.224;14.348;2023-07-13T11:15:43;99250.47;;;32.15;24.32
79067;BME280;68470;50.224;14.348;2023-07-13T11:18:19;99270.91;;;31.95;24.20
79067;BME280;68470;50.224;14.348;2023-07-13T11:20:48;99277.84;;;29.69;27.38
79067;BME280;68470;50.224;14.348;2023-07-13T11:25:43;99265.34;;;29.77;27.44
79067;BME280;68470;50.224;14.348;2023-07-13T11:30:48;99262.66;;;34.16;21.85
79067;BME280;68470;50.224;14.348;2023-07-13T11:38:16;99245.63;;;32.08;24.20
79067;BME280;68470;50.224;14.348;2023-07-13T11:40:44;99250.31;;;31.31;24.97
79067;BME280;68470;50.224;14.348;2023-07-13T11:43:14;99252.47;;;32.95;23.08
79067;BME280;68470;50.224;14.348;2023-07-13T11:45:41;99234.09;;;33.82;22.05
79067;BME280;68470;50.224;14.348;2023-07-13T11:48:19;99245.78;;;32.60;24.10
79067;BME280;68470;50.224;14.348;2023-07-13T11:50:52;99252.66;;;31.71;24.54
79067;BME280;68470;50.224;14.348;2023-07-13T11:53:19;99249.66;;;29.35;27.69
79067;BME280;68470;50.224;14.348;2023-07-13T11:55:45;99243.97;;;28.06;29.57
79067;BME280;68470;50.224;14.348;2023-07-13T11:58:17;99257.16;;;29.64;28.70
79067;BME280;68470;50.224;14.348;2023-07-13T12:00:46;99252.63;;;29.49;27.64
79067;BME280;68470;50.224;14.348;2023-07-13T12:03:20;99253.72;;;28.12;30.44
79067;BME280;68470;50.224;14.348;2023-07-13T12:06:21;99246.59;;;28.25;30.05
79067;BME280;68470;50.224;14.348;2023-07-13T12:08:50;99251.66;;;28.42;29.77
79067;BME280;68470;50.224;14.348;2023-07-13T12:11:17;99261.22;;;29.09;29.21
79067;BME280;68470;50.224;14.348;2023-07-13T12:13:44;99257.06;;;30.27;26.33
79067;BME280;68470;50.224;14.348;2023-07-13T12:16:15;99243.16;;;32.14;24.26
79067;BME280;68470;50.224;14.348;2023-07-13T12:18:43;99238.06;;;31.55;25.32
79067;BME280;68470;50.224;14.348;2023-07-13T12:21:13;99238.09;;;31.45;25.62
79067;BME280;68470;50.224;14.348;2023-07-13T12:23:43;99240.13;;;30.73;27.02
79067;BME280;68470;50.224;14.348;2023-07-13T12:26:09;99245.41;;;29.62;27.80
79067;BME280;68470;50.224;14.348;2023-07-13T12:28:43;99245.19;;;28.08;29.80
79067;BME280;68470;50.224;14.348;2023-07-13T12:31:40;99253.72;;;27.25;31.78
79067;BME280;68470;50.224;14.348;2023-07-13T12:34:09;99244.38;;;27.21;31.48
79067;BME280;68470;50.224;14.348;2023-07-13T12:36:40;99245.00;;;27.38;31.95
79067;BME280;68470;50.224;14.348;2023-07-13T12:42:24;99235.47;;;27.72;31.16
79067;BME280;68470;50.224;14.348;2023-07-13T12:47:46;99250.94;;;27.03;32.67
79067;BME280;68470;50.224;14.348;2023-07-13T12:50:19;99258.97;;;27.01;31.83
79067;BME280;68470;50.224;14.348;2023-07-13T12:52:51;99262.22;;;26.80;33.20
79067;BME280;68470;50.224;14.348;2023-07-13T12:55:19;99250.94;;;26.80;32.71
79067;BME280;68470;50.224;14.348;2023-07-13T12:57:55;99257.06;;;26.85;32.93
79067;BME280;68470;50.224;14.348;2023-07-13T13:00:30;99274.44;;;26.64;33.49
79067;BME280;68470;50.224;14.348;2023-07-13T13:03:12;99270.97;;;26.71;33.24
79067;BME280;68470;50.224;14.348;2023-07-13T13:05:44;99253.75;;;26.80;32.84
79067;BME280;68470;50.224;14.348;2023-07-13T13:08:14;99262.78;;;27.12;33.07
79067;BME280;68470;50.224;14.348;2023-07-13T13:10:40;99263.91;;;26.61;33.48
79067;BME280;68470;50.224;14.348;2023-07-13T13:13:06;99275.03;;;26.12;33.92
79067;BME280;68470;50.224;14.348;2023-07-13T13:15:32;99273.44;;;26.53;34.34
79067;BME280;68470;50.224;14.348;2023-07-13T13:17:58;99269.63;;;28.24;31.18
79067;BME280;68470;50.224;14.348;2023-07-13T13:20:24;99268.56;;;30.76;27.08
79067;BME280;68470;50.224;14.348;2023-07-13T13:22:51;99261.84;;;32.29;24.97
79067;BME280;68470;50.224;14.348;2023-07-13T13:25:18;99256.00;;;31.20;26.37